Flight Number: EUR3006 Duration: 11:00
Departure: Frankfurt Airport (EDDF) at 08:00 Distance: 5335 Nm
Arrival: Vancouver Airport (CYVR) at 19:00 Equipment: B747

Weather Information
Frankfurt / M-Flughafen, Germany (EDDF) 50-03N 008-36E 113M Feb 19, 2018 - 02:20 AM EST / 2018.02.19 0720 UTC
Wind: from the ENE (070 degrees) at 7 MPH (6 KT):0
Visibility: greater than 7 mile(s):0 Temperature: 28 F (-2 C)
Windchill: 21 F (-6 C):1 Dew Point: 26 F (-3 C) Relative Humidity: 92% Pressure (altimeter): 30.18 in. Hg (1022 hPa)
ob: EDDF 190720Z 07006KT CAVOK M02/M03 Q1022 R88/15//95 NOSIG cycle: 7
Sunrise: 06:31 Sunset: 16:47 (UTC)

Vancouver International Air-Port, B. C., Canada (CYVR) 49-11N 123-10W 2M Feb 19, 2018 - 02:00 AM EST / 2018.02.19 0700 UTC
Wind: from the NNE (020 degrees) at 7 MPH (6 KT):0
Visibility: 20 mile(s):0
Sky conditions: clear Temperature: 24 F (-4 C)
Windchill: 15 F (-9 C):1 Dew Point: 14 F (-10 C) Relative Humidity: 62% Pressure (altimeter): 30.11 in. Hg (1019 hPa)
ob: CYVR 190700Z 02006KT 20SM SKC M04/M10 A3011 RMK SLP197 cycle: 7
Sunrise: 15:16 Sunset: 01:36 (UTC)

TAF:2018/02/19 06:42 TAF CYVR 190538Z 1906/2012 03008KT P6SM FEW040 FEW250 FM190900 07005KT P6SM FEW020 FM192100 29005KT P6SM SCT220 FM200400 07005KT P6SM SCT150 RMK NXT FCST BY 190900Z

Previous Pireps for this route
Date Aircraft Flight time Fuel used Landing rate On time
2013-06-03A330-20011.03141838-338Charter
2013-07-08B77711.00179441-261Charter
2016-12-29B74711.032045590Yes
(pireps marked green are flown by you)

Route map